createdAt,value
2018-05-17T00:00:27.329Z,12.99
2018-05-17T00:02:54.721Z,12.90
2018-05-17T00:05:22.127Z,12.74
2018-05-17T00:07:49.515Z,12.91
2018-05-17T00:10:16.981Z,12.94
2018-05-17T00:12:44.410Z,12.85
2018-05-17T00:15:11.868Z,12.65
2018-05-17T00:17:39.278Z,12.62
2018-05-17T00:20:06.701Z,12.60
2018-05-17T00:22:34.145Z,12.65
2018-05-17T00:25:01.541Z,12.61
2018-05-17T00:27:28.937Z,12.70
2018-05-17T00:29:56.334Z,12.52
2018-05-17T00:32:23.729Z,12.57
2018-05-17T00:34:51.267Z,12.44
2018-05-17T00:37:18.641Z,12.56
2018-05-17T00:39:46.125Z,12.51
2018-05-17T00:42:13.614Z,12.59
2018-05-17T00:44:41.057Z,12.77
2018-05-17T00:47:08.457Z,12.61
2018-05-17T00:49:35.853Z,12.55
2018-05-17T00:52:03.317Z,12.55
2018-05-17T00:54:30.796Z,12.51
2018-05-17T00:56:58.192Z,12.52
2018-05-17T00:59:25.579Z,12.52
2018-05-17T01:01:52.997Z,12.40
2018-05-17T01:04:20.393Z,12.38
2018-05-17T01:06:47.805Z,12.32
2018-05-17T01:09:15.220Z,12.31
2018-05-17T01:11:42.643Z,12.22
2018-05-17T01:14:10.078Z,12.19
2018-05-17T01:16:37.476Z,12.27
2018-05-17T01:19:04.878Z,12.32
2018-05-17T01:21:32.357Z,12.30
2018-05-17T01:23:59.806Z,12.22
2018-05-17T01:26:27.214Z,11.99
2018-05-17T01:28:54.611Z,11.95
2018-05-17T01:31:22.013Z,11.94
2018-05-17T01:36:16.175Z,11.97
2018-05-17T01:38:43.569Z,11.95
2018-05-17T01:41:10.994Z,11.94
2018-05-17T01:43:38.437Z,11.87
2018-05-17T01:46:05.836Z,11.90
2018-05-17T01:48:33.233Z,11.76
2018-05-17T01:51:00.638Z,11.69
2018-05-17T01:53:28.054Z,11.66
2018-05-17T01:55:55.504Z,11.54
2018-05-17T01:58:22.968Z,11.52
2018-05-17T02:00:50.386Z,11.63
2018-05-17T02:03:17.785Z,11.63
2018-05-17T02:05:45.237Z,11.83
2018-05-17T02:08:12.655Z,11.85
2018-05-17T02:10:40.061Z,11.79
2018-05-17T02:13:07.445Z,11.73
2018-05-17T02:15:34.861Z,11.82
2018-05-17T02:18:02.269Z,11.78
2018-05-17T02:20:29.672Z,11.79
2018-05-17T02:22:57.086Z,11.86
2018-05-17T02:25:24.556Z,11.95
2018-05-17T02:27:52.033Z,12.00
2018-05-17T02:30:19.433Z,12.04
2018-05-17T02:32:46.832Z,11.64
2018-05-17T02:35:14.221Z,11.47
2018-05-17T02:37:41.633Z,11.43
2018-05-17T02:40:09.035Z,11.43
2018-05-17T02:42:36.557Z,11.31
2018-05-17T02:45:03.958Z,11.26
2018-05-17T02:47:31.389Z,11.36
2018-05-17T02:49:58.812Z,11.45
2018-05-17T02:52:26.287Z,11.52
2018-05-17T02:54:53.678Z,11.40
2018-05-17T02:57:21.079Z,11.36
2018-05-17T02:59:48.497Z,11.45
2018-05-17T03:02:15.894Z,11.44
2018-05-17T03:04:43.288Z,11.51
2018-05-17T03:07:10.697Z,11.41
2018-05-17T03:09:38.129Z,11.56
2018-05-17T03:12:05.628Z,11.43
2018-05-17T03:14:33.025Z,11.35
2018-05-17T03:17:00.431Z,11.24
2018-05-17T03:19:27.862Z,11.35
2018-05-17T03:21:55.281Z,11.24
2018-05-17T03:24:22.702Z,11.30
2018-05-17T03:26:50.093Z,11.50
2018-05-17T03:29:17.484Z,11.68
2018-05-17T03:31:44.906Z,11.65
2018-05-17T03:34:12.301Z,11.53
2018-05-17T03:36:39.747Z,11.36
2018-05-17T03:39:07.137Z,11.24
2018-05-17T03:41:34.538Z,11.29
2018-05-17T03:44:01.945Z,11.47
2018-05-17T03:46:29.351Z,11.54
2018-05-17T03:48:56.742Z,11.55
2018-05-17T03:51:24.231Z,11.63
2018-05-17T03:53:51.626Z,11.71
2018-05-17T03:56:19.022Z,11.66
2018-05-17T03:58:46.414Z,11.74
2018-05-17T04:01:25.653Z,11.45
2018-05-17T04:04:04.721Z,11.33
2018-05-17T04:06:37.633Z,11.24
2018-05-17T04:09:05.781Z,11.20
2018-05-17T04:11:33.296Z,11.38
2018-05-17T04:14:00.849Z,11.55
2018-05-17T04:16:28.137Z,11.62
2018-05-17T04:18:55.582Z,11.71
2018-05-17T04:21:22.977Z,11.80
2018-05-17T04:23:50.379Z,11.80
2018-05-17T04:26:17.782Z,11.67
2018-05-17T04:28:45.176Z,11.62
2018-05-17T04:31:12.683Z,11.61
2018-05-17T04:33:40.084Z,11.68
2018-05-17T04:36:07.475Z,11.63
2018-05-17T04:38:34.895Z,11.66
2018-05-17T04:41:02.295Z,11.64
2018-05-17T04:43:29.748Z,11.70
2018-05-17T04:45:57.157Z,11.57
2018-05-17T04:48:24.607Z,11.61
2018-05-17T04:50:51.994Z,11.67
2018-05-17T04:53:19.397Z,11.69
2018-05-17T04:55:46.799Z,11.94
2018-05-17T04:58:14.217Z,11.95
2018-05-17T05:00:41.640Z,11.91
2018-05-17T05:03:09.050Z,12.08
2018-05-17T05:05:36.443Z,12.29
2018-05-17T05:08:03.847Z,12.25
2018-05-17T05:10:31.241Z,12.22
2018-05-17T05:12:58.645Z,12.19
2018-05-17T05:15:26.119Z,12.12
2018-05-17T05:17:53.565Z,12.14
2018-05-17T05:20:20.952Z,12.23
2018-05-17T05:22:48.357Z,12.20
2018-05-17T05:25:15.833Z,12.15
2018-05-17T05:27:43.306Z,12.08
2018-05-17T05:30:10.703Z,12.23
2018-05-17T05:32:38.093Z,12.29
2018-05-17T05:35:05.589Z,12.46
2018-05-17T05:37:33.077Z,12.54
2018-05-17T05:40:00.397Z,12.57
2018-05-17T05:42:27.797Z,12.64
2018-05-17T05:44:55.377Z,12.84
2018-05-17T05:47:22.848Z,12.92
2018-05-17T05:49:50.252Z,12.72
2018-05-17T05:52:17.645Z,12.76
2018-05-17T05:54:45.053Z,12.70
2018-05-17T05:57:12.462Z,12.62
2018-05-17T05:59:39.929Z,12.56
2018-05-17T06:02:07.343Z,12.68
2018-05-17T06:04:34.765Z,12.80
2018-05-17T06:07:02.153Z,12.73
2018-05-17T06:09:29.578Z,12.90
2018-05-17T06:11:56.997Z,12.89
2018-05-17T06:14:24.443Z,13.04
2018-05-17T06:16:51.842Z,13.07
2018-05-17T06:19:19.241Z,13.11
2018-05-17T06:21:46.638Z,13.40
2018-05-17T06:24:14.049Z,13.33
2018-05-17T06:26:41.533Z,13.52
2018-05-17T06:29:08.937Z,13.65
2018-05-17T06:31:36.325Z,13.62
2018-05-17T06:34:03.815Z,13.82
2018-05-17T06:36:31.304Z,13.87
2018-05-17T06:38:58.726Z,13.96
2018-05-17T06:41:26.112Z,14.09
2018-05-17T06:43:53.611Z,14.11
2018-05-17T06:46:21.021Z,13.98
2018-05-17T06:48:48.448Z,14.01
2018-05-17T06:51:15.840Z,14.18
2018-05-17T06:53:43.241Z,14.46
2018-05-17T06:56:10.646Z,14.41
2018-05-17T06:58:38.086Z,14.15
2018-05-17T07:01:05.502Z,13.77
2018-05-17T07:03:32.943Z,13.83
2018-05-17T07:06:00.385Z,13.62
2018-05-17T07:08:27.790Z,13.72
2018-05-17T07:10:55.190Z,13.63
2018-05-17T07:13:22.673Z,13.65
2018-05-17T07:15:50.097Z,13.63
2018-05-17T07:18:17.648Z,13.45
2018-05-17T07:20:45.905Z,13.68
2018-05-17T07:23:13.305Z,13.89
2018-05-17T07:25:40.697Z,13.94
2018-05-17T07:28:08.225Z,13.96
2018-05-17T07:30:35.638Z,13.93
2018-05-17T07:33:03.043Z,14.03
2018-05-17T07:35:30.554Z,13.99
2018-05-17T07:37:57.974Z,13.86
2018-05-17T07:40:25.457Z,14.03
2018-05-17T07:42:52.871Z,13.96
2018-05-17T07:45:20.327Z,13.82
2018-05-17T07:47:47.733Z,13.72
2018-05-17T07:50:15.142Z,13.52
2018-05-17T07:52:42.641Z,13.56
2018-05-17T07:55:10.075Z,13.74
2018-05-17T07:57:37.480Z,14.06
2018-05-17T08:00:04.920Z,14.17
2018-05-17T08:02:32.317Z,14.25
2018-05-17T08:04:59.821Z,14.01
2018-05-17T08:07:27.219Z,14.04
2018-05-17T08:09:54.701Z,14.11
2018-05-17T08:12:22.105Z,14.02
2018-05-17T08:14:49.513Z,14.05
2018-05-17T08:17:16.908Z,13.92
2018-05-17T08:19:44.327Z,13.97
2018-05-17T08:22:11.732Z,14.08
2018-05-17T08:24:39.171Z,14.26
2018-05-17T08:27:06.566Z,14.19
2018-05-17T08:29:33.967Z,14.46
2018-05-17T08:32:01.369Z,14.52
2018-05-17T08:34:28.857Z,14.79
2018-05-17T08:36:56.348Z,14.94
2018-05-17T08:39:23.810Z,15.13
2018-05-17T08:41:51.277Z,15.39
2018-05-17T08:44:18.731Z,15.64
2018-05-17T08:46:46.177Z,15.68
2018-05-17T08:49:13.633Z,15.84
2018-05-17T08:51:41.121Z,15.94
2018-05-17T08:54:08.536Z,15.87
2018-05-17T08:56:35.921Z,15.88
2018-05-17T08:59:03.337Z,15.55
2018-05-17T09:01:30.860Z,15.10
2018-05-17T09:03:58.260Z,15.43
2018-05-17T09:06:25.659Z,15.41
2018-05-17T09:08:53.165Z,15.79
2018-05-17T09:11:20.549Z,16.22
2018-05-17T09:13:48.019Z,16.33
2018-05-17T09:16:15.388Z,16.30
2018-05-17T09:18:42.877Z,15.83
2018-05-17T09:21:10.286Z,16.08
2018-05-17T09:23:37.684Z,16.05
2018-05-17T09:26:05.110Z,16.04
2018-05-17T09:28:32.512Z,16.03
2018-05-17T09:30:59.975Z,15.89
2018-05-17T09:33:27.363Z,16.01
2018-05-17T09:35:54.768Z,16.01
2018-05-17T09:38:22.193Z,16.16
2018-05-17T09:40:49.639Z,16.48
2018-05-17T09:43:17.141Z,16.92
2018-05-17T09:45:44.617Z,17.24
2018-05-17T09:48:12.053Z,17.12
2018-05-17T09:50:39.497Z,17.39
2018-05-17T09:53:06.978Z,17.75
2018-05-17T09:55:34.384Z,18.08
2018-05-17T09:58:01.788Z,18.10
2018-05-17T10:00:31.402Z,17.86
2018-05-17T10:02:58.805Z,17.57
2018-05-17T10:05:26.312Z,17.93
2018-05-17T10:07:53.705Z,17.77
2018-05-17T10:10:21.210Z,17.92
2018-05-17T10:12:48.602Z,17.48
2018-05-17T10:15:16.006Z,17.40
2018-05-17T10:17:43.423Z,17.26
2018-05-17T10:20:10.838Z,17.15
2018-05-17T10:22:38.231Z,17.60
2018-05-17T10:25:05.648Z,17.64
2018-05-17T10:27:33.984Z,17.80
2018-05-17T10:30:01.385Z,17.96
2018-05-17T10:32:28.813Z,18.12
2018-05-17T10:34:56.195Z,18.21
2018-05-17T10:37:23.668Z,18.62
2018-05-17T10:39:51.065Z,18.95
2018-05-17T10:42:18.555Z,18.38
2018-05-17T10:44:46.038Z,18.69
2018-05-17T10:47:13.438Z,18.43
2018-05-17T10:49:40.838Z,18.40
2018-05-17T10:52:08.232Z,18.31
2018-05-17T10:54:35.730Z,18.80
2018-05-17T10:57:03.029Z,18.97
2018-05-17T10:59:30.479Z,18.85
2018-05-17T11:01:57.912Z,19.03
2018-05-17T11:04:25.318Z,19.34
2018-05-17T11:06:52.736Z,19.27
2018-05-17T11:09:20.213Z,19.11
2018-05-17T11:11:47.593Z,18.77
2018-05-17T11:14:15.002Z,18.68
2018-05-17T11:16:42.403Z,18.62
2018-05-17T11:19:09.790Z,18.80
2018-05-17T11:21:37.181Z,18.74
2018-05-17T11:24:04.625Z,18.76
2018-05-17T11:26:32.052Z,18.68
2018-05-17T11:28:59.459Z,18.64
2018-05-17T11:31:26.897Z,18.69
2018-05-17T11:33:54.291Z,18.70
2018-05-17T11:36:21.685Z,18.82
2018-05-17T11:38:49.100Z,19.33
2018-05-17T11:41:16.505Z,18.93
2018-05-17T11:43:44.002Z,19.06
2018-05-17T11:46:11.441Z,19.41
2018-05-17T11:48:38.839Z,19.53
2018-05-17T11:51:06.269Z,19.23
2018-05-17T11:53:33.837Z,19.19
2018-05-17T11:56:01.235Z,19.27
2018-05-17T11:58:28.650Z,19.32
2018-05-17T12:00:56.077Z,19.08
2018-05-17T12:03:23.472Z,19.22
2018-05-17T12:05:50.921Z,19.31
2018-05-17T12:08:18.387Z,19.54
2018-05-17T12:10:45.797Z,19.49
2018-05-17T12:13:13.184Z,19.38
2018-05-17T12:15:40.593Z,19.34
2018-05-17T12:18:07.992Z,19.39
2018-05-17T12:20:35.398Z,19.11
2018-05-17T12:23:03.007Z,19.20
2018-05-17T12:25:30.301Z,19.05
2018-05-17T12:27:57.697Z,19.69
2018-05-17T12:30:25.122Z,19.93
2018-05-17T12:32:52.650Z,19.70
2018-05-17T12:35:20.054Z,19.52
2018-05-17T12:37:47.525Z,19.35
2018-05-17T12:40:14.952Z,19.29
2018-05-17T12:42:42.620Z,19.60
2018-05-17T12:45:09.772Z,19.71
2018-05-17T12:47:37.193Z,19.81
2018-05-17T12:50:05.022Z,19.82
2018-05-17T12:52:32.438Z,19.90
2018-05-17T12:54:59.845Z,19.54
2018-05-17T12:57:27.361Z,19.55
2018-05-17T12:59:54.801Z,19.62
2018-05-17T13:02:22.216Z,19.46
2018-05-17T13:04:49.665Z,19.08
2018-05-17T13:07:17.089Z,19.40
2018-05-17T13:09:44.595Z,19.01
2018-05-17T13:12:12.019Z,19.05
2018-05-17T13:14:39.409Z,18.83
2018-05-17T13:17:06.825Z,18.90
2018-05-17T13:19:34.237Z,18.72
2018-05-17T13:22:01.652Z,18.55
2018-05-17T13:24:29.049Z,18.70
2018-05-17T13:26:56.453Z,18.68
2018-05-17T13:29:24.126Z,18.62
2018-05-17T13:31:51.552Z,18.32
2018-05-17T13:34:18.954Z,18.44
2018-05-17T13:36:46.379Z,18.43
2018-05-17T13:39:13.857Z,18.23
2018-05-17T13:41:41.281Z,18.47
2018-05-17T13:44:08.673Z,18.51
2018-05-17T13:46:36.092Z,18.46
2018-05-17T13:49:03.795Z,18.27
2018-05-17T13:51:31.180Z,18.09
2018-05-17T13:53:58.574Z,18.14
2018-05-17T13:56:26.041Z,18.00
2018-05-17T13:58:53.505Z,17.44
2018-05-17T14:01:20.958Z,17.09
2018-05-17T14:03:48.336Z,17.33
2018-05-17T14:06:15.747Z,17.13
2018-05-17T14:08:43.133Z,17.25
2018-05-17T14:11:10.550Z,17.37
2018-05-17T14:13:37.949Z,17.36
2018-05-17T14:16:05.449Z,17.25
2018-05-17T14:18:32.876Z,17.28
2018-05-17T14:21:00.277Z,17.16
2018-05-17T14:23:27.750Z,16.80
2018-05-17T14:25:55.217Z,16.70
2018-05-17T14:28:22.604Z,16.84
2018-05-17T14:30:50.016Z,16.96
2018-05-17T14:33:17.520Z,16.79
2018-05-17T14:35:44.925Z,16.71
2018-05-17T14:38:12.344Z,16.49
2018-05-17T14:40:39.769Z,16.25
2018-05-17T14:43:07.272Z,16.08
2018-05-17T14:45:34.721Z,16.28
2018-05-17T14:48:02.139Z,16.17
2018-05-17T14:50:29.540Z,16.34
2018-05-17T14:52:56.977Z,16.40
2018-05-17T14:55:24.449Z,16.56
2018-05-17T14:57:51.898Z,16.37
2018-05-17T15:00:19.301Z,16.54
2018-05-17T15:02:46.709Z,16.62
2018-05-17T15:05:14.162Z,16.53
2018-05-17T15:07:41.622Z,16.35
2018-05-17T15:10:09.027Z,16.10
2018-05-17T15:12:36.463Z,16.30
2018-05-17T15:15:03.896Z,16.16
2018-05-17T15:17:31.459Z,16.16
2018-05-17T15:19:58.900Z,16.00
2018-05-17T15:22:26.371Z,16.02
2018-05-17T15:24:53.816Z,16.03
2018-05-17T15:27:21.345Z,15.87
2018-05-17T15:29:48.725Z,15.90
2018-05-17T15:32:16.110Z,15.62
2018-05-17T15:34:43.557Z,15.81
2018-05-17T15:37:10.954Z,15.75
2018-05-17T15:39:38.351Z,15.60
2018-05-17T15:42:05.827Z,15.68
2018-05-17T15:44:33.301Z,15.87
2018-05-17T15:47:00.741Z,15.69
2018-05-17T15:49:28.153Z,15.79
2018-05-17T15:51:55.562Z,15.88
2018-05-17T15:54:22.956Z,16.06
2018-05-17T15:56:50.360Z,15.69
2018-05-17T15:59:17.837Z,15.33
2018-05-17T16:01:45.248Z,15.33
2018-05-17T16:04:12.768Z,15.29
2018-05-17T16:06:40.228Z,15.14
2018-05-17T16:09:07.590Z,15.01
2018-05-17T16:11:34.997Z,14.97
2018-05-17T16:14:02.401Z,14.92
2018-05-17T16:16:29.922Z,14.90
2018-05-17T16:18:57.338Z,14.93
2018-05-17T16:21:24.825Z,14.90
2018-05-17T16:23:52.233Z,15.00
2018-05-17T16:26:19.621Z,14.88
2018-05-17T16:28:47.062Z,14.95
2018-05-17T16:31:14.465Z,14.71
2018-05-17T16:33:41.923Z,14.86
2018-05-17T16:36:09.322Z,14.81
2018-05-17T16:38:36.812Z,14.96
2018-05-17T16:41:04.217Z,14.97
2018-05-17T16:43:31.636Z,15.06
2018-05-17T16:45:59.042Z,15.13
2018-05-17T16:48:26.592Z,14.99
2018-05-17T16:50:54.012Z,14.80
2018-05-17T16:53:21.484Z,14.91
2018-05-17T16:55:48.846Z,14.84
2018-05-17T16:58:16.240Z,14.83
2018-05-17T17:00:43.741Z,15.04
2018-05-17T17:03:11.138Z,14.86
2018-05-17T17:05:38.534Z,14.93
2018-05-17T17:08:05.968Z,14.83
2018-05-17T17:10:33.348Z,14.80
2018-05-17T17:13:00.860Z,14.59
2018-05-17T17:15:28.252Z,14.57
2018-05-17T17:17:55.744Z,14.54
2018-05-17T17:20:23.094Z,14.63
2018-05-17T17:22:50.500Z,14.64
2018-05-17T17:25:17.926Z,14.68
2018-05-17T17:27:45.328Z,14.67
2018-05-17T17:30:12.805Z,14.63
2018-05-17T17:32:40.221Z,14.71
2018-05-17T17:35:07.603Z,14.82
2018-05-17T17:37:35.029Z,14.80
2018-05-17T17:40:02.441Z,14.66
2018-05-17T17:42:29.881Z,14.58
2018-05-17T17:44:57.404Z,14.62
2018-05-17T17:47:24.920Z,14.64
2018-05-17T17:49:52.503Z,14.77
2018-05-17T17:52:19.853Z,14.69
2018-05-17T17:54:47.275Z,14.89
2018-05-17T17:57:14.672Z,14.96
2018-05-17T17:59:42.153Z,14.89
2018-05-17T18:02:09.596Z,14.66
2018-05-17T18:04:37.008Z,14.55
2018-05-17T18:07:04.417Z,14.55
2018-05-17T18:09:31.812Z,14.61
2018-05-17T18:11:59.210Z,14.69
2018-05-17T18:14:26.664Z,14.91
2018-05-17T18:16:54.062Z,14.79
2018-05-17T18:19:21.456Z,14.80
2018-05-17T18:21:48.848Z,14.92
2018-05-17T18:24:16.254Z,14.91
2018-05-17T18:26:43.676Z,15.03
2018-05-17T18:29:11.150Z,15.03
2018-05-17T18:31:38.575Z,15.05
2018-05-17T18:34:06.019Z,14.83
2018-05-17T18:36:33.472Z,14.72
2018-05-17T18:39:00.870Z,14.68
2018-05-17T18:41:28.322Z,14.55
2018-05-17T18:43:55.757Z,14.66
2018-05-17T18:46:23.196Z,14.60
2018-05-17T18:48:50.591Z,14.52
2018-05-17T18:51:18.002Z,14.50
2018-05-17T18:53:45.403Z,14.57
2018-05-17T18:56:12.817Z,14.49
2018-05-17T18:58:40.298Z,14.43
2018-05-17T19:01:07.892Z,14.70
2018-05-17T19:03:35.301Z,14.80
2018-05-17T19:06:02.697Z,14.78
2018-05-17T19:08:30.126Z,14.92
2018-05-17T19:10:57.513Z,14.75
2018-05-17T19:13:24.913Z,14.75
2018-05-17T19:15:52.369Z,14.38
2018-05-17T19:18:19.832Z,14.19
2018-05-17T19:20:47.252Z,14.17
2018-05-17T19:23:14.648Z,14.27
2018-05-17T19:25:42.125Z,14.18
2018-05-17T19:28:09.516Z,14.14
2018-05-17T19:30:37.020Z,14.10
2018-05-17T19:33:04.489Z,14.33
2018-05-17T19:35:31.894Z,14.41
2018-05-17T19:37:59.312Z,14.28
2018-05-17T19:40:26.846Z,14.28
2018-05-17T19:42:54.242Z,14.25
2018-05-17T19:45:21.748Z,14.29
2018-05-17T19:47:49.067Z,14.17
2018-05-17T19:50:16.569Z,14.05
2018-05-17T19:52:43.969Z,14.10
2018-05-17T19:55:11.383Z,14.02
2018-05-17T19:57:38.790Z,13.95
2018-05-17T20:00:06.183Z,13.98
2018-05-17T20:02:34.540Z,13.96
2018-05-17T20:05:02.103Z,13.62
2018-05-17T20:07:29.462Z,13.67
2018-05-17T20:09:56.966Z,13.53
2018-05-17T20:12:24.393Z,13.57
2018-05-17T20:14:51.788Z,13.51
2018-05-17T20:17:19.217Z,13.49
2018-05-17T20:19:46.699Z,13.27
2018-05-17T20:22:14.100Z,13.36
2018-05-17T20:24:41.509Z,13.50
2018-05-17T20:27:08.930Z,13.29
2018-05-17T20:29:36.363Z,13.32
2018-05-17T20:32:03.861Z,13.39
2018-05-17T20:34:31.263Z,13.34
2018-05-17T20:36:58.722Z,13.26
2018-05-17T20:39:26.123Z,13.25
2018-05-17T20:41:53.525Z,13.29
2018-05-17T20:44:20.992Z,13.05
2018-05-17T20:46:48.466Z,12.82
2018-05-17T20:49:15.962Z,12.63
2018-05-17T20:51:43.514Z,12.57
2018-05-17T20:54:10.962Z,12.54
2018-05-17T20:56:38.726Z,12.49
2018-05-17T20:59:06.196Z,12.63
2018-05-17T21:01:33.663Z,12.84
2018-05-17T21:04:01.108Z,12.97
2018-05-17T21:06:28.502Z,12.87
2018-05-17T21:08:55.976Z,12.56
2018-05-17T21:11:23.422Z,12.39
2018-05-17T21:13:50.822Z,12.55
2018-05-17T21:16:18.210Z,12.67
2018-05-17T21:18:45.613Z,12.78
2018-05-17T21:21:13.042Z,12.76
2018-05-17T21:23:40.448Z,12.61
2018-05-17T21:26:07.947Z,12.46
2018-05-17T21:28:35.349Z,12.52
2018-05-17T21:31:02.749Z,12.37
2018-05-17T21:33:30.174Z,12.28
2018-05-17T21:35:57.574Z,12.23
2018-05-17T21:38:25.025Z,12.09
2018-05-17T21:40:52.489Z,11.99
2018-05-17T21:43:19.894Z,11.86
2018-05-17T21:45:47.289Z,11.84
2018-05-17T21:48:14.693Z,12.03
2018-05-17T21:50:42.090Z,12.00
2018-05-17T21:53:09.508Z,12.12
2018-05-17T21:55:37.082Z,12.09
2018-05-17T21:58:04.445Z,12.12
2018-05-17T22:00:31.829Z,11.89
2018-05-17T22:02:59.234Z,11.82
2018-05-17T22:05:26.624Z,11.84
2018-05-17T22:07:54.040Z,11.82
2018-05-17T22:10:21.565Z,11.90
2018-05-17T22:12:48.972Z,12.08
2018-05-17T22:15:16.355Z,11.97
2018-05-17T22:17:43.785Z,11.95
2018-05-17T22:20:11.260Z,11.90
2018-05-17T22:22:38.664Z,12.04
2018-05-17T22:25:06.174Z,12.32
2018-05-17T22:27:33.574Z,12.29
2018-05-17T22:30:00.988Z,12.25
2018-05-17T22:32:28.397Z,12.41
2018-05-17T22:34:55.785Z,12.54
2018-05-17T22:37:23.190Z,12.66
2018-05-17T22:39:50.598Z,12.76
2018-05-17T22:42:18.065Z,12.45
2018-05-17T22:44:45.449Z,12.15
2018-05-17T22:47:14.557Z,11.90
2018-05-17T22:49:42.074Z,11.83
2018-05-17T22:52:09.533Z,11.72
2018-05-17T22:54:36.973Z,11.89
2018-05-17T22:57:12.253Z,11.83
2018-05-17T22:59:39.656Z,11.99
2018-05-17T23:02:07.053Z,11.94
2018-05-17T23:04:34.551Z,11.80
2018-05-17T23:07:01.964Z,11.74
2018-05-17T23:09:29.447Z,11.80
2018-05-17T23:11:56.862Z,11.69
2018-05-17T23:14:24.265Z,11.58
2018-05-17T23:16:51.677Z,11.39
2018-05-17T23:19:19.088Z,11.30
2018-05-17T23:21:46.484Z,11.15
2018-05-17T23:24:13.982Z,11.19
2018-05-17T23:26:41.382Z,11.21
2018-05-17T23:29:08.801Z,11.29
2018-05-17T23:31:36.212Z,11.19
2018-05-17T23:34:03.642Z,11.29
2018-05-17T23:36:31.037Z,11.32
2018-05-17T23:38:58.462Z,11.30
2018-05-17T23:41:36.703Z,11.25
2018-05-17T23:44:04.128Z,11.03
2018-05-17T23:46:31.646Z,11.20
2018-05-17T23:48:59.055Z,11.22
2018-05-17T23:51:26.465Z,10.95
2018-05-17T23:53:53.857Z,10.99
2018-05-17T23:56:21.274Z,11.00
2018-05-17T23:58:48.746Z,11.08
